Time;durP1;ratioP1;P1;durP2;ratioP2;P2;SDS_P1;SDS_P2;PMS_P1;PMS_P2;Temp;Humidity;BMP_temperature;BMP_pressure;BME280_temperature;BME280_humidity;BME280_pressure;Samples;Min_cycle;Max_cycle;Signal;HPM_P1;HPM_P2
2021/01/20 00:01:47;;;;;;;3.93;3.20;;;11.10;97.80;;;;;;4982833;28;20289;-57
2021/01/20 00:04:20;;;;;;;4.63;3.40;;;11.00;98.00;;;;;;4971988;28;20948;-57
2021/01/20 00:06:50;;;;;;;5.90;3.70;;;10.80;98.20;;;;;;4971952;28;21045;-56
2021/01/20 00:09:20;;;;;;;6.10;3.40;;;10.80;99.30;;;;;;4964473;29;20495;-57
2021/01/20 00:11:51;;;;;;;3.70;3.40;;;10.80;99.70;;;;;;4970315;28;20496;-56
2021/01/20 00:14:21;;;;;;;4.03;3.37;;;10.70;99.90;;;;;;4999779;28;20582;-56
2021/01/20 00:16:51;;;;;;;4.03;3.47;;;10.70;99.90;;;;;;4981651;28;20881;-57
2021/01/20 00:19:23;;;;;;;6.40;3.75;;;10.60;99.90;;;;;;4988065;28;20207;-56
2021/01/20 00:21:53;;;;;;;4.38;3.28;;;10.60;99.90;;;;;;4985154;28;20222;-59
2021/01/20 00:24:23;;;;;;;7.60;3.93;;;10.40;99.90;;;;;;4986827;28;20305;-56
2021/01/20 00:26:59;;;;;;;4.82;3.95;;;10.30;99.90;;;;;;4981607;28;20466;-56
2021/01/20 00:29:29;;;;;;;4.97;4.47;;;10.30;99.90;;;;;;4985503;28;20237;-58
2021/01/20 00:31:59;;;;;;;5.10;3.85;;;10.10;99.90;;;;;;4979885;28;20206;-57
2021/01/20 00:34:31;;;;;;;4.32;4.00;;;10.00;99.90;;;;;;4985057;28;20270;-57
2021/01/20 00:37:02;;;;;;;5.32;4.43;;;9.90;99.90;;;;;;4983700;28;20208;-57
2021/01/20 00:39:32;;;;;;;5.03;4.53;;;9.80;99.90;;;;;;4982772;28;20230;-56
2021/01/20 00:42:02;;;;;;;6.38;4.10;;;9.70;99.90;;;;;;4983687;28;20209;-58
2021/01/20 00:44:32;;;;;;;5.60;4.50;;;9.60;99.90;;;;;;4986498;28;20283;-57
2021/01/20 00:47:03;;;;;;;6.97;4.50;;;9.50;99.90;;;;;;4984433;28;20221;-55
2021/01/20 00:49:37;;;;;;;5.45;3.70;;;9.40;99.90;;;;;;4986791;28;20235;-57
2021/01/20 00:52:13;;;;;;;5.95;3.90;;;9.30;99.90;;;;;;4983621;28;20204;-55
2021/01/20 00:54:43;;;;;;;5.78;4.20;;;9.20;99.90;;;;;;4986912;28;20212;-56
2021/01/20 00:57:13;;;;;;;4.97;4.57;;;9.10;99.90;;;;;;4986508;28;20205;-58
2021/01/20 00:59:46;;;;;;;5.18;4.35;;;9.10;99.90;;;;;;4985652;28;20324;-57
2021/01/20 01:02:20;;;;;;;6.30;4.20;;;9.00;99.90;;;;;;4967100;29;20221;-58
2021/01/20 01:04:54;;;;;;;5.63;5.13;;;8.80;99.90;;;;;;4967279;29;20234;-58
2021/01/20 01:07:24;;;;;;;5.68;4.40;;;8.70;99.90;;;;;;4969981;28;20258;-56
2021/01/20 01:09:56;;;;;;;5.20;4.57;;;8.60;99.90;;;;;;4975247;28;20228;-58
2021/01/20 01:12:26;;;;;;;6.53;5.03;;;8.60;99.90;;;;;;4986374;28;20240;-58
2021/01/20 01:14:56;;;;;;;4.72;4.22;;;8.50;99.90;;;;;;4992872;28;20223;-59
2021/01/20 01:17:26;;;;;;;5.40;4.90;;;8.50;99.90;;;;;;4981020;28;20267;-59
2021/01/20 01:19:58;;;;;;;7.15;5.70;;;8.40;99.90;;;;;;4998545;28;20674;-60
2021/01/20 01:22:28;;;;;;;9.50;4.82;;;8.30;99.90;;;;;;4990099;28;20218;-59
2021/01/20 01:24:58;;;;;;;5.68;5.15;;;8.30;99.90;;;;;;5003302;28;20232;-59
2021/01/20 01:27:29;;;;;;;5.53;5.03;;;8.30;99.90;;;;;;5003441;28;20204;-60
2021/01/20 01:29:59;;;;;;;5.20;4.70;;;8.10;99.90;;;;;;5003726;28;20311;-60
2021/01/20 01:32:29;;;;;;;5.78;5.20;;;8.00;99.90;;;;;;4999528;28;20208;-60
2021/01/20 01:35:03;;;;;;;7.90;5.43;;;8.00;99.90;;;;;;4989266;28;20202;-59
2021/01/20 01:37:34;;;;;;;5.82;4.80;;;7.90;99.90;;;;;;4985291;28;20222;-60
2021/01/20 01:40:05;;;;;;;6.25;4.95;;;7.80;99.90;;;;;;4999391;28;20207;-59
2021/01/20 01:42:35;;;;;;;6.70;4.68;;;7.70;99.90;;;;;;4980405;28;20204;-59
2021/01/20 01:45:07;;;;;;;7.00;5.75;;;7.60;99.90;;;;;;4985920;28;20259;-61
2021/01/20 01:47:37;;;;;;;6.60;5.90;;;7.50;99.90;;;;;;4985397;28;20205;-60
2021/01/20 01:50:14;;;;;;;9.13;4.60;;;7.40;99.90;;;;;;4986219;28;20311;-58
2021/01/20 01:52:45;;;;;;;5.90;5.30;;;7.30;99.90;;;;;;4980899;28;20204;-57
2021/01/20 01:55:16;;;;;;;7.30;5.68;;;7.30;99.90;;;;;;4968680;28;20263;-58
2021/01/20 01:57:47;;;;;;;5.43;4.90;;;7.30;99.90;;;;;;4977642;28;20212;-59
2021/01/20 02:00:18;;;;;;;8.50;5.50;;;7.20;99.90;;;;;;4985583;28;20219;-59
2021/01/20 02:02:53;;;;;;;8.35;6.38;;;7.30;99.90;;;;;;4972476;28;20196;-58
2021/01/20 02:05:24;;;;;;;7.43;6.65;;;7.30;99.90;;;;;;5000569;28;20250;-58
2021/01/20 02:07:58;;;;;;;8.70;7.80;;;7.40;99.90;;;;;;5002420;28;20196;-58
2021/01/20 02:10:30;;;;;;;7.80;7.10;;;7.30;99.90;;;;;;4987551;28;20295;-55
2021/01/20 02:13:18;;;;;;;9.77;7.40;;;7.30;99.90;;;;;;4982980;28;20736;-57
2021/01/20 02:16:07;;;;;;;9.90;6.57;;;7.20;99.90;;;;;;4985468;28;20252;-57
2021/01/20 02:18:41;;;;;;;7.90;7.10;;;7.10;99.90;;;;;;4984889;28;20256;-58
2021/01/20 02:21:31;;;;;;;8.80;7.90;;;7.10;99.90;;;;;;4984392;28;20969;-57
2021/01/20 02:24:12;;;;;;;14.25;7.88;;;7.10;99.90;;;;;;4984905;28;20263;-58
2021/01/20 02:27:06;;;;;;;8.95;8.05;;;7.10;99.90;;;;;;4984277;28;20197;-57
2021/01/20 02:29:46;;;;;;;8.82;7.93;;;6.90;99.90;;;;;;4998975;28;20270;-58
2021/01/20 02:32:19;;;;;;;7.85;7.05;;;6.80;99.90;;;;;;4982116;28;20710;-59
2021/01/20 02:34:52;;;;;;;9.57;8.15;;;6.60;99.90;;;;;;4984309;28;20230;-58
2021/01/20 02:37:24;;;;;;;9.18;7.82;;;6.50;99.90;;;;;;4992320;28;20212;-58
2021/01/20 02:39:55;;;;;;;9.98;8.98;;;6.50;99.90;;;;;;4982103;28;20212;-57
2021/01/20 02:42:26;;;;;;;9.07;8.18;;;6.40;99.90;;;;;;4983851;28;20208;-58
2021/01/20 02:44:59;;;;;;;10.25;9.18;;;6.40;99.90;;;;;;4984410;28;20212;-58
2021/01/20 02:47:33;;;;;;;10.38;8.65;;;6.40;99.90;;;;;;4980009;28;20279;-59
2021/01/20 02:50:04;;;;;;;10.85;9.38;;;6.30;99.90;;;;;;4984582;28;20237;-59
2021/01/20 02:52:41;;;;;;;10.20;9.20;;;6.20;99.90;;;;;;4983017;28;20211;-59
2021/01/20 02:55:16;;;;;;;10.88;9.00;;;6.20;99.90;;;;;;4983671;28;20209;-59
2021/01/20 02:57:54;;;;;;;17.10;13.63;;;6.10;99.90;;;;;;4982832;28;20570;-58
2021/01/20 03:00:25;;;;;;;21.00;16.60;;;6.00;99.90;;;;;;4980282;28;20316;-59
2021/01/20 03:03:00;;;;;;;18.27;15.50;;;6.10;99.90;;;;;;4983804;28;20196;-58
2021/01/20 03:05:31;;;;;;;15.82;14.10;;;6.00;99.90;;;;;;4989257;28;20196;-58
2021/01/20 03:08:02;;;;;;;18.42;15.00;;;6.00;99.90;;;;;;4970782;28;20240;-57
2021/01/20 03:10:34;;;;;;;20.88;18.30;;;6.00;99.90;;;;;;4983379;28;20232;-56
2021/01/20 03:13:04;;;;;;;20.30;18.25;;;6.00;99.90;;;;;;4973414;28;20212;-57
2021/01/20 03:15:37;;;;;;;18.15;15.85;;;5.90;99.90;;;;;;4984452;28;20272;-56
2021/01/20 03:18:09;;;;;;;19.67;15.88;;;5.80;99.90;;;;;;4982358;28;20209;-56
2021/01/20 03:20:39;;;;;;;19.70;16.35;;;5.70;99.90;;;;;;4979438;28;20212;-56
2021/01/20 03:23:09;;;;;;;20.88;16.67;;;5.70;99.90;;;;;;4979403;28;20209;-58
2021/01/20 03:25:39;;;;;;;20.35;17.67;;;5.60;99.90;;;;;;4967555;28;20204;-59
2021/01/20 03:28:09;;;;;;;19.95;17.65;;;5.60;99.90;;;;;;4972517;28;20578;-59
2021/01/20 03:30:39;;;;;;;25.65;21.15;;;5.60;99.90;;;;;;4987064;28;20220;-58
2021/01/20 03:33:13;;;;;;;34.00;23.00;;;5.50;99.90;;;;;;4981113;28;20208;-58
2021/01/20 03:35:43;;;;;;;19.55;17.50;;;5.40;99.90;;;;;;4983960;28;20548;-58
2021/01/20 03:38:14;;;;;;;21.20;18.65;;;5.40;99.90;;;;;;4983921;28;20265;-56
2021/01/20 03:40:44;;;;;;;17.42;15.63;;;5.40;99.90;;;;;;4967558;28;20320;-57
2021/01/20 03:43:14;;;;;;;18.73;16.65;;;5.40;99.90;;;;;;4969495;28;20635;-54
2021/01/20 03:45:44;;;;;;;18.65;16.65;;;5.40;99.90;;;;;;4976904;28;20223;-58
2021/01/20 03:48:15;;;;;;;19.25;17.27;;;5.40;99.90;;;;;;4982983;28;20236;-59
2021/01/20 03:50:45;;;;;;;39.17;22.73;;;5.50;99.90;;;;;;4983565;28;20229;-58
2021/01/20 03:53:16;;;;;;;21.40;19.15;;;5.40;99.90;;;;;;4983741;28;20216;-59
2021/01/20 03:55:46;;;;;;;21.35;18.30;;;5.40;99.90;;;;;;4983420;28;20211;-59
2021/01/20 03:58:16;;;;;;;22.02;18.83;;;5.40;99.90;;;;;;4983054;28;20208;-58
2021/01/20 04:00:46;;;;;;;21.55;18.67;;;5.40;99.90;;;;;;4987638;28;20196;-58
2021/01/20 04:03:17;;;;;;;20.98;18.80;;;5.30;99.90;;;;;;4985219;28;20247;-58
2021/01/20 04:05:48;;;;;;;19.88;17.85;;;5.20;99.90;;;;;;4979355;28;20208;-58
2021/01/20 04:08:18;;;;;;;22.77;18.63;;;5.20;99.90;;;;;;4981009;28;20212;-58
2021/01/20 04:10:49;;;;;;;20.30;18.20;;;5.10;99.90;;;;;;4974451;28;20236;-59
2021/01/20 04:13:19;;;;;;;21.35;17.80;;;5.00;99.90;;;;;;4974214;28;20205;-57
2021/01/20 04:15:49;;;;;;;19.92;17.92;;;4.90;99.90;;;;;;4969071;28;20242;-58
2021/01/20 04:18:20;;;;;;;20.65;17.98;;;4.90;99.90;;;;;;4969679;28;20308;-58
2021/01/20 04:20:50;;;;;;;20.48;18.40;;;4.90;99.90;;;;;;4983770;28;20227;-58
2021/01/20 04:23:22;;;;;;;21.02;18.67;;;4.90;99.90;;;;;;4974034;28;20204;-57
2021/01/20 04:25:56;;;;;;;21.73;18.60;;;4.90;99.90;;;;;;4983331;28;20201;-58
2021/01/20 04:28:26;;;;;;;21.50;19.33;;;4.80;99.90;;;;;;4983444;28;20639;-58
2021/01/20 04:30:56;;;;;;;21.38;19.27;;;4.80;99.90;;;;;;4982877;28;20236;-58
2021/01/20 04:33:28;;;;;;;24.00;21.60;;;4.90;99.90;;;;;;4982788;28;20204;-58
2021/01/20 04:35:58;;;;;;;47.45;25.45;;;4.90;99.90;;;;;;4983481;28;20204;-59
2021/01/20 04:38:28;;;;;;;24.00;21.02;;;4.90;99.90;;;;;;4983197;28;20208;-58
2021/01/20 04:40:59;;;;;;;23.63;21.02;;;4.90;99.90;;;;;;4983391;28;20220;-57
2021/01/20 04:43:29;;;;;;;22.05;19.85;;;4.90;99.90;;;;;;4983541;28;20204;-58
2021/01/20 04:45:59;;;;;;;22.20;19.80;;;4.90;99.90;;;;;;4981594;28;20264;-58
2021/01/20 04:48:36;;;;;;;22.52;20.27;;;4.70;99.90;;;;;;4973082;28;20221;-57
2021/01/20 04:51:07;;;;;;;22.88;19.55;;;4.60;99.90;;;;;;4973001;28;20219;-58
2021/01/20 04:53:41;;;;;;;23.10;20.52;;;4.60;99.90;;;;;;4980253;28;20221;-58
2021/01/20 04:56:13;;;;;;;23.02;19.77;;;4.60;99.90;;;;;;4974424;28;20204;-57
2021/01/20 04:58:43;;;;;;;25.90;21.35;;;4.50;99.90;;;;;;4976084;28;20284;-57
2021/01/20 05:01:14;;;;;;;23.15;20.67;;;4.40;99.90;;;;;;4983174;28;20633;-57
2021/01/20 05:03:47;;;;;;;20.73;18.48;;;4.30;99.90;;;;;;4983970;28;20240;-59
2021/01/20 05:06:17;;;;;;;20.80;18.60;;;4.30;99.90;;;;;;4982453;28;20209;-57
2021/01/20 05:08:48;;;;;;;477.15;95.43;;;4.30;99.90;;;;;;4984181;28;20212;-58
2021/01/20 05:11:19;;;;;;;1958.30;371.73;;;4.40;99.90;;;;;;4986117;28;20271;-58
2021/01/20 05:13:51;;;;;;;24.00;21.60;;;4.40;99.90;;;;;;4983310;28;20247;-54
2021/01/20 05:16:27;;;;;;;23.08;19.65;;;4.30;99.90;;;;;;4974893;28;20224;-56
2021/01/20 05:18:58;;;;;;;23.60;20.20;;;4.20;99.90;;;;;;4980592;28;20300;-57
2021/01/20 05:21:29;;;;;;;22.83;20.27;;;4.20;99.90;;;;;;4986280;28;20224;-57
2021/01/20 05:24:20;;;;;;;24.38;21.88;;;4.10;99.90;;;;;;4986632;28;20586;-59
2021/01/20 05:26:51;;;;;;;31.23;22.90;;;4.00;99.90;;;;;;4985599;28;20205;-59
2021/01/20 05:29:21;;;;;;;24.88;21.70;;;4.00;99.90;;;;;;4982160;28;20235;-56
2021/01/20 05:31:52;;;;;;;24.40;21.80;;;4.00;99.90;;;;;;4985914;28;20235;-56
2021/01/20 05:34:32;;;;;;;23.20;20.88;;;4.00;99.90;;;;;;4983366;28;20263;-55
2021/01/20 05:37:09;;;;;;;23.48;21.08;;;4.00;99.90;;;;;;4991583;28;20204;-57
2021/01/20 05:39:40;;;;;;;25.52;20.75;;;4.00;99.90;;;;;;4979809;28;20249;-57
2021/01/20 05:42:12;;;;;;;24.00;20.05;;;4.00;99.90;;;;;;4977966;28;20213;-59
2021/01/20 05:44:42;;;;;;;23.92;21.27;;;3.90;99.90;;;;;;4984216;28;20271;-55
2021/01/20 05:47:13;;;;;;;30.00;23.35;;;3.80;99.90;;;;;;4974703;28;20212;-55
2021/01/20 05:49:44;;;;;;;26.00;20.90;;;3.80;99.90;;;;;;4978194;28;20224;-53
2021/01/20 05:52:15;;;;;;;23.25;19.85;;;3.80;99.90;;;;;;4973953;28;20210;-52
2021/01/20 05:54:45;;;;;;;25.63;22.20;;;3.80;99.90;;;;;;4980918;28;20274;-55
2021/01/20 05:57:16;;;;;;;24.30;21.70;;;3.70;99.90;;;;;;4985036;28;20201;-55
2021/01/20 05:59:48;;;;;;;25.17;22.48;;;3.70;99.90;;;;;;4986190;28;20208;-55
2021/01/20 06:02:19;;;;;;;27.20;22.83;;;3.70;99.90;;;;;;4982112;28;20213;-52
2021/01/20 06:04:52;;;;;;;25.52;21.98;;;3.60;99.90;;;;;;4983850;28;20204;-55
2021/01/20 06:07:23;;;;;;;27.60;24.55;;;3.50;99.90;;;;;;4986304;28;20649;-54
2021/01/20 06:09:54;;;;;;;25.73;23.08;;;3.60;99.90;;;;;;4985016;28;20229;-53
2021/01/20 06:15:15;;;;;;;29.23;25.33;;;3.50;99.90;;;;;;4979216;28;20705;-53
2021/01/20 06:17:48;;;;;;;31.23;24.88;;;3.50;99.90;;;;;;4988640;28;20196;-54
2021/01/20 06:20:23;;;;;;;31.00;27.75;;;3.40;99.90;;;;;;4982843;28;20311;-53
2021/01/20 06:22:57;;;;;;;33.78;27.52;;;3.40;99.90;;;;;;4984546;28;20203;-54
2021/01/20 06:25:31;;;;;;;29.67;24.98;;;3.40;99.90;;;;;;4981054;28;20314;-55
2021/01/20 06:28:07;;;;;;;25.30;22.60;;;3.40;99.90;;;;;;4987592;28;20207;-53
2021/01/20 06:30:40;;;;;;;37.63;33.33;;;3.40;99.90;;;;;;4984862;28;20573;-52
2021/01/20 06:33:11;;;;;;;29.33;25.95;;;3.30;99.90;;;;;;4984800;28;20200;-54
2021/01/20 06:35:44;;;;;;;29.63;26.13;;;3.20;99.90;;;;;;4982946;28;20227;-52
2021/01/20 06:38:38;;;;;;;26.80;23.95;;;3.20;99.90;;;;;;4983376;28;20263;-53
2021/01/20 06:41:11;;;;;;;23.38;20.00;;;3.20;99.90;;;;;;4972350;28;20208;-52
2021/01/20 06:43:45;;;;;;;21.45;19.02;;;3.20;99.90;;;;;;4987180;28;20205;-55
2021/01/20 06:46:29;;;;;;;24.33;19.92;;;3.10;99.90;;;;;;4994411;28;20216;-53
2021/01/20 06:49:07;;;;;;;21.58;19.27;;;3.10;99.90;;;;;;4988414;28;20208;-53
2021/01/20 06:51:38;;;;;;;24.95;20.90;;;3.10;99.90;;;;;;4984566;28;20205;-54
2021/01/20 06:54:13;;;;;;;24.60;21.00;;;3.10;99.90;;;;;;4989944;28;20207;-55
2021/01/20 06:56:48;;;;;;;23.52;21.10;;;3.00;99.90;;;;;;4989600;28;20255;-53
2021/01/20 06:59:20;;;;;;;21.77;19.25;;;3.00;99.90;;;;;;4993088;28;20208;-54
2021/01/20 07:02:12;;;;;;;23.20;20.40;;;3.00;99.90;;;;;;4985717;28;20206;-53
2021/01/20 07:05:00;;;;;;;23.05;20.58;;;3.00;99.90;;;;;;5000886;28;20212;-55
2021/01/20 07:07:54;;;;;;;20.25;18.25;;;3.00;99.90;;;;;;4998523;28;20216;-54
2021/01/20 07:10:27;;;;;;;23.88;18.55;;;3.00;99.90;;;;;;4983602;28;20231;-53
2021/01/20 07:13:19;;;;;;;22.98;20.02;;;2.90;99.90;;;;;;4984225;28;20209;-55
2021/01/20 07:15:55;;;;;;;20.10;18.00;;;2.90;99.90;;;;;;4983112;28;20193;-52
2021/01/20 07:18:25;;;;;;;24.73;19.67;;;2.90;99.90;;;;;;4985071;28;20586;-55
2021/01/20 07:20:56;;;;;;;22.02;19.75;;;2.90;99.90;;;;;;4989207;28;20207;-53
2021/01/20 07:23:30;;;;;;;21.27;18.50;;;2.80;99.90;;;;;;4996900;28;20203;-54
2021/01/20 07:26:03;;;;;;;20.40;17.52;;;2.70;99.90;;;;;;4982092;28;20522;-52
2021/01/20 07:28:34;;;;;;;18.95;17.08;;;2.70;99.90;;;;;;4982075;28;20189;-54
2021/01/20 07:31:10;;;;;;;16.45;14.20;;;2.70;99.90;;;;;;4980861;28;20279;-53
2021/01/20 07:33:41;;;;;;;18.70;15.15;;;2.70;99.90;;;;;;4983246;28;20204;-49
2021/01/20 07:36:20;;;;;;;15.30;13.10;;;2.70;99.90;;;;;;4982033;28;20279;-53
2021/01/20 07:38:52;;;;;;;14.88;13.18;;;2.70;99.90;;;;;;4995827;28;20208;-52
2021/01/20 07:41:26;;;;;;;19.15;15.48;;;2.70;99.90;;;;;;4986475;28;20228;-53
2021/01/20 07:44:07;;;;;;;17.73;15.68;;;2.60;99.90;;;;;;4983483;28;20243;-51
2021/01/20 07:46:39;;;;;;;17.58;15.70;;;2.60;99.90;;;;;;4996952;28;20199;-50
2021/01/20 07:49:22;;;;;;;17.30;15.45;;;2.60;99.90;;;;;;4987026;28;20223;-54
2021/01/20 07:52:03;;;;;;;16.05;14.45;;;2.60;99.90;;;;;;4984388;28;20263;-53
2021/01/20 07:54:41;;;;;;;18.17;15.65;;;2.50;99.90;;;;;;4982901;28;20271;-54
2021/01/20 07:57:22;;;;;;;17.15;14.88;;;2.50;99.90;;;;;;4977271;28;20273;-53
2021/01/20 08:00:03;;;;;;;16.92;14.98;;;2.50;99.90;;;;;;4969545;28;20213;-52
2021/01/20 08:02:34;;;;;;;15.30;13.75;;;2.50;99.90;;;;;;4983220;28;20212;-51
2021/01/20 08:05:05;;;;;;;16.92;14.02;;;2.50;99.90;;;;;;4983877;28;20291;-52
2021/01/20 08:07:35;;;;;;;14.75;12.20;;;2.50;99.90;;;;;;4984000;28;20552;-52
2021/01/20 08:10:17;;;;;;;12.20;10.90;;;2.40;99.90;;;;;;4983572;28;20283;-52
2021/01/20 08:12:48;;;;;;;14.00;11.82;;;2.30;99.90;;;;;;4988183;28;20570;-53
2021/01/20 08:15:19;;;;;;;11.85;10.60;;;2.30;99.90;;;;;;4986021;28;20251;-50
2021/01/20 08:17:49;;;;;;;13.68;11.50;;;2.30;99.90;;;;;;4997680;28;20204;-49
2021/01/20 08:20:20;;;;;;;11.80;10.52;;;2.30;99.90;;;;;;4983424;28;20595;-53
2021/01/20 08:22:50;;;;;;;11.52;9.88;;;2.30;99.90;;;;;;4984051;28;20683;-49
2021/01/20 08:25:23;;;;;;;11.55;10.25;;;2.30;99.90;;;;;;4983619;28;20659;-50
2021/01/20 08:27:53;;;;;;;11.50;10.40;;;2.20;99.90;;;;;;4983062;28;20259;-48
2021/01/20 08:30:34;;;;;;;14.18;11.98;;;2.20;99.90;;;;;;4983350;28;20322;-51
2021/01/20 08:33:05;;;;;;;13.90;11.20;;;2.20;99.90;;;;;;4983124;28;20607;-53
2021/01/20 08:35:36;;;;;;;11.20;10.00;;;2.20;99.90;;;;;;4983188;28;20205;-52
2021/01/20 08:38:07;;;;;;;12.40;11.20;;;2.20;99.90;;;;;;4983986;28;20610;-55
2021/01/20 08:40:38;;;;;;;11.93;10.73;;;2.20;99.90;;;;;;4984236;28;20219;-54
2021/01/20 08:43:08;;;;;;;11.93;10.73;;;2.10;99.90;;;;;;4983766;28;20204;-47
2021/01/20 08:45:45;;;;;;;12.45;11.18;;;2.10;99.90;;;;;;4999767;28;20276;-53
2021/01/20 08:48:16;;;;;;;10.63;9.60;;;2.10;99.90;;;;;;4986873;28;20205;-54
2021/01/20 08:50:47;;;;;;;11.13;9.82;;;2.00;99.90;;;;;;4986473;28;20311;-48
2021/01/20 08:53:28;;;;;;;11.50;10.30;;;2.00;99.90;;;;;;4986286;28;20235;-52
2021/01/20 08:55:59;;;;;;;12.70;10.35;;;2.00;99.90;;;;;;4986321;28;20271;-54
2021/01/20 08:58:30;;;;;;;10.52;9.48;;;2.00;99.90;;;;;;4986837;28;20314;-53
2021/01/20 09:01:02;;;;;;;10.90;9.80;;;2.00;99.90;;;;;;4986594;28;20212;-52
2021/01/20 09:03:33;;;;;;;14.90;11.00;;;1.90;99.90;;;;;;4986390;28;20216;-54
2021/01/20 09:06:04;;;;;;;9.48;8.60;;;1.90;99.90;;;;;;4986650;28;20201;-53
2021/01/20 09:08:38;;;;;;;10.45;9.45;;;1.90;99.90;;;;;;4987177;28;20264;-53
2021/01/20 09:11:10;;;;;;;12.20;9.77;;;1.90;99.90;;;;;;4991947;28;20251;-52
2021/01/20 09:13:40;;;;;;;11.15;9.95;;;1.90;99.90;;;;;;4986145;28;20661;-52
2021/01/20 09:16:10;;;;;;;12.98;9.88;;;1.80;99.90;;;;;;4985806;28;20200;-53
2021/01/20 09:18:43;;;;;;;10.90;9.82;;;1.80;99.90;;;;;;4986508;28;20212;-49
2021/01/20 09:21:13;;;;;;;10.38;8.88;;;1.90;99.90;;;;;;4985966;28;20257;-49
2021/01/20 09:23:44;;;;;;;10.43;9.38;;;1.80;99.90;;;;;;4986673;28;20196;-51
2021/01/20 09:26:15;;;;;;;12.25;8.18;;;1.90;99.90;;;;;;4985673;28;20208;-51
2021/01/20 09:28:45;;;;;;;10.32;8.65;;;1.80;99.90;;;;;;4986426;28;20232;-52
2021/01/20 09:31:15;;;;;;;10.73;9.00;;;1.80;99.90;;;;;;4985843;28;20233;-53
2021/01/20 09:33:45;;;;;;;9.95;8.77;;;1.80;99.90;;;;;;4986163;28;20208;-51
2021/01/20 09:36:15;;;;;;;10.23;9.23;;;1.80;99.90;;;;;;4985985;28;20201;-49
2021/01/20 09:38:45;;;;;;;10.48;9.13;;;1.80;99.90;;;;;;4986738;28;20678;-52
2021/01/20 09:41:17;;;;;;;11.18;10.07;;;1.80;99.90;;;;;;4992415;28;20275;-51
2021/01/20 09:43:47;;;;;;;10.18;9.05;;;1.80;99.90;;;;;;4998189;28;20216;-51
2021/01/20 09:46:17;;;;;;;8.70;7.90;;;1.70;99.90;;;;;;4985815;28;20266;-52
2021/01/20 09:48:47;;;;;;;10.30;8.82;;;1.70;99.90;;;;;;4985558;28;20205;-54
2021/01/20 09:51:17;;;;;;;9.57;8.40;;;1.70;99.90;;;;;;4983861;28;20232;-51
2021/01/20 09:53:47;;;;;;;8.90;8.02;;;1.60;99.90;;;;;;4985177;28;20212;-52
2021/01/20 09:56:18;;;;;;;9.95;8.95;;;1.60;99.90;;;;;;4985101;28;20304;-53
2021/01/20 09:58:48;;;;;;;9.48;8.35;;;1.60;99.90;;;;;;4983639;28;20209;-54
2021/01/20 10:01:18;;;;;;;9.50;8.32;;;1.60;99.90;;;;;;4984846;28;20227;-52
2021/01/20 10:03:51;;;;;;;10.93;9.73;;;1.60;99.90;;;;;;4983654;28;20201;-48
2021/01/20 10:06:22;;;;;;;11.80;9.60;;;1.60;99.90;;;;;;4991003;28;20204;-50
2021/01/20 10:08:51;;;;;;;9.65;8.65;;;1.60;99.90;;;;;;4987732;28;20197;-52
2021/01/20 10:11:24;;;;;;;10.23;8.65;;;1.60;99.90;;;;;;4983980;28;20552;-50
2021/01/20 10:13:54;;;;;;;9.27;8.13;;;1.60;99.90;;;;;;4985404;28;20219;-53
2021/01/20 10:16:24;;;;;;;9.35;8.52;;;1.60;99.90;;;;;;4985530;28;20208;-52
2021/01/20 10:18:54;;;;;;;9.48;8.57;;;1.50;99.90;;;;;;4984837;28;20260;-52
2021/01/20 10:21:24;;;;;;;9.88;8.73;;;1.60;99.90;;;;;;4982737;28;20197;-50
2021/01/20 10:23:54;;;;;;;9.88;8.98;;;1.50;99.90;;;;;;4985256;28;20231;-49
2021/01/20 10:26:27;;;;;;;11.23;9.10;;;1.50;99.90;;;;;;4999374;28;21965;-50
2021/01/20 10:28:57;;;;;;;9.75;8.73;;;1.40;99.90;;;;;;5002604;28;20212;-52
2021/01/20 10:31:31;;;;;;;9.95;8.60;;;1.50;99.90;;;;;;4983181;28;20220;-52
2021/01/20 10:34:02;;;;;;;10.52;9.43;;;1.50;99.90;;;;;;4988738;28;20365;-53
2021/01/20 10:36:33;;;;;;;12.57;9.23;;;1.40;99.90;;;;;;4983009;28;20196;-53
2021/01/20 10:39:04;;;;;;;9.82;8.82;;;1.40;99.90;;;;;;4986577;28;20213;-53
2021/01/20 10:41:36;;;;;;;9.20;8.20;;;1.40;99.90;;;;;;4983968;28;20560;-52
2021/01/20 10:44:07;;;;;;;9.30;8.10;;;1.30;99.90;;;;;;4985476;28;20263;-52
2021/01/20 10:46:37;;;;;;;8.77;7.97;;;1.30;99.90;;;;;;4984850;28;20205;-53
2021/01/20 10:49:07;;;;;;;9.25;8.35;;;1.30;99.90;;;;;;5002834;28;20224;-53
2021/01/20 10:51:37;;;;;;;9.50;8.07;;;1.30;99.90;;;;;;5003462;28;20281;-53
2021/01/20 10:54:07;;;;;;;10.00;9.00;;;1.30;99.90;;;;;;5004603;28;20208;-53
2021/01/20 10:56:40;;;;;;;8.55;7.75;;;1.30;99.90;;;;;;5003696;28;20212;-52
2021/01/20 10:59:10;;;;;;;11.43;8.35;;;1.20;99.90;;;;;;5004514;28;20212;-54
2021/01/20 11:01:40;;;;;;;8.90;8.00;;;1.30;99.90;;;;;;5001936;28;20204;-50
2021/01/20 11:04:10;;;;;;;9.93;8.77;;;1.20;99.90;;;;;;5004724;28;20195;-52
2021/01/20 11:06:40;;;;;;;9.20;8.27;;;1.20;99.90;;;;;;5003086;28;20241;-55
2021/01/20 11:09:11;;;;;;;10.45;8.18;;;1.20;99.90;;;;;;4996417;28;20207;-53
2021/01/20 11:11:43;;;;;;;10.68;7.43;;;1.20;99.90;;;;;;4983137;28;20251;-55
2021/01/20 11:14:13;;;;;;;9.25;7.50;;;1.20;99.90;;;;;;4983902;28;20213;-52
2021/01/20 11:16:45;;;;;;;9.68;8.20;;;1.10;99.90;;;;;;4984248;28;20199;-53
2021/01/20 11:19:16;;;;;;;8.95;8.10;;;1.10;99.90;;;;;;4985104;28;20267;-54
2021/01/20 11:21:46;;;;;;;8.88;7.95;;;1.20;99.90;;;;;;4984025;28;20259;-54
2021/01/20 11:24:18;;;;;;;8.18;7.38;;;1.20;99.90;;;;;;4984596;28;20208;-51
2021/01/20 11:26:49;;;;;;;11.27;8.85;;;1.30;99.90;;;;;;4985899;28;20524;-53
2021/01/20 11:29:19;;;;;;;9.55;7.45;;;1.20;99.90;;;;;;5003978;28;20238;-53
2021/01/20 11:31:50;;;;;;;9.00;8.05;;;1.20;99.90;;;;;;5003426;28;20243;-51
2021/01/20 11:34:20;;;;;;;10.95;8.60;;;1.20;99.90;;;;;;5004454;28;20582;-54
2021/01/20 11:36:53;;;;;;;9.60;8.70;;;1.20;99.90;;;;;;5002212;28;20215;-54
2021/01/20 11:39:23;;;;;;;8.45;7.65;;;1.20;99.90;;;;;;4984436;28;20263;-51
2021/01/20 11:41:59;;;;;;;8.65;7.60;;;1.20;99.90;;;;;;4986377;28;20235;-53
2021/01/20 11:44:29;;;;;;;12.23;9.50;;;1.20;99.90;;;;;;5003466;28;20211;-51
2021/01/20 11:46:59;;;;;;;8.35;7.50;;;1.20;99.90;;;;;;4998963;28;20212;-52
2021/01/20 11:49:29;;;;;;;9.68;8.75;;;1.20;99.90;;;;;;4985462;28;20239;-54
2021/01/20 11:51:59;;;;;;;8.30;7.43;;;1.20;99.90;;;;;;4983785;28;20306;-51
2021/01/20 11:54:29;;;;;;;9.75;8.60;;;1.20;99.90;;;;;;4986117;28;20263;-52
2021/01/20 11:57:01;;;;;;;9.10;8.13;;;1.20;99.90;;;;;;5002573;28;20231;-54
2021/01/20 11:59:31;;;;;;;8.52;7.72;;;1.20;99.90;;;;;;5002476;28;20206;-52
2021/01/20 12:02:01;;;;;;;10.48;9.48;;;1.20;99.90;;;;;;4981269;28;20201;-51
2021/01/20 12:04:32;;;;;;;9.73;7.53;;;1.20;99.90;;;;;;4983354;28;20272;-54
2021/01/20 12:07:02;;;;;;;9.40;8.10;;;1.20;99.90;;;;;;4984029;28;20531;-53
2021/01/20 12:09:32;;;;;;;7.95;7.15;;;1.20;99.90;;;;;;4998608;28;20207;-54
2021/01/20 12:12:03;;;;;;;8.27;7.35;;;1.20;99.90;;;;;;5000590;28;20527;-54
2021/01/20 12:14:37;;;;;;;11.30;9.07;;;1.10;99.90;;;;;;4994392;28;20245;-51
2021/01/20 12:17:07;;;;;;;8.80;7.82;;;1.20;99.90;;;;;;4965118;28;20328;-52
2021/01/20 12:19:37;;;;;;;7.95;6.97;;;1.20;99.90;;;;;;4968689;29;20339;-53
2021/01/20 12:22:07;;;;;;;8.90;7.20;;;1.20;99.90;;;;;;4970587;28;20209;-48
2021/01/20 12:24:37;;;;;;;7.75;7.00;;;1.10;99.90;;;;;;4968532;29;20260;-53
2021/01/20 12:27:08;;;;;;;7.25;6.55;;;1.10;99.90;;;;;;4967827;29;20214;-54
2021/01/20 12:29:38;;;;;;;8.35;7.55;;;1.10;99.90;;;;;;4972282;28;20193;-53
2021/01/20 12:32:08;;;;;;;7.57;6.85;;;1.10;99.90;;;;;;4988865;28;20228;-52
2021/01/20 12:34:39;;;;;;;7.78;7.03;;;1.10;99.90;;;;;;4987059;28;20252;-52
2021/01/20 12:37:12;;;;;;;10.63;7.75;;;1.10;99.90;;;;;;4995136;28;20240;-51
2021/01/20 12:39:42;;;;;;;8.65;6.90;;;1.10;99.90;;;;;;5004752;28;20200;-53
2021/01/20 12:42:13;;;;;;;9.77;7.22;;;1.10;99.90;;;;;;4983457;28;20694;-51
2021/01/20 12:44:43;;;;;;;8.85;7.85;;;1.10;99.90;;;;;;4985337;28;20192;-53
2021/01/20 12:47:13;;;;;;;9.50;8.50;;;1.10;99.90;;;;;;4985414;28;20737;-53
2021/01/20 12:49:43;;;;;;;8.68;7.82;;;1.10;99.90;;;;;;4987036;28;20583;-52
2021/01/20 12:52:13;;;;;;;10.07;8.35;;;1.10;99.90;;;;;;4991256;28;20216;-52
2021/01/20 12:54:44;;;;;;;8.65;7.75;;;1.00;99.90;;;;;;4998717;28;20228;-51
2021/01/20 12:57:15;;;;;;;8.60;7.82;;;1.00;99.90;;;;;;4986616;28;20197;-53
2021/01/20 12:59:45;;;;;;;8.10;7.30;;;1.00;99.90;;;;;;4987482;28;20201;-54
2021/01/20 13:02:15;;;;;;;9.30;7.30;;;1.00;99.90;;;;;;4987608;28;20244;-52
2021/01/20 13:04:46;;;;;;;9.00;7.95;;;1.00;99.90;;;;;;4987260;28;20209;-53
2021/01/20 13:07:16;;;;;;;8.93;8.13;;;1.00;99.90;;;;;;4987652;28;20204;-52
2021/01/20 13:09:46;;;;;;;8.27;6.82;;;1.00;99.90;;;;;;4987377;28;20208;-53
2021/01/20 13:12:17;;;;;;;10.07;8.00;;;1.00;99.90;;;;;;4989934;28;20236;-52
2021/01/20 13:14:47;;;;;;;7.88;7.07;;;1.00;99.90;;;;;;4986732;28;20213;-54